Time;durP1;ratioP1;P1;durP2;ratioP2;P2;SDS_P1;SDS_P2;PMS_P1;PMS_P2;Temp;Humidity;BMP_temperature;BMP_pressure;BME280_temperature;BME280_humidity;BME280_pressure;Samples;Min_cycle;Max_cycle;Signal;HPM_P1;HPM_P2
2023/02/11 00:00:40;;;;;;;22.35;11.00;;;;;;;5.22;100.00;103218.75;5032216;28;20073;-62
2023/02/11 00:03:09;;;;;;;22.20;10.20;;;;;;;5.18;100.00;103224.88;5031632;28;20128;-61
2023/02/11 00:05:37;;;;;;;22.45;10.20;;;;;;;5.16;100.00;103224.00;5031611;28;20155;-62
2023/02/11 00:08:05;;;;;;;20.98;10.45;;;;;;;5.18;100.00;103222.25;5030686;28;20053;-62
2023/02/11 00:10:35;;;;;;;24.73;9.23;;;;;;;5.20;100.00;103220.50;5030632;28;20056;-61
2023/02/11 00:13:03;;;;;;;19.98;9.38;;;;;;;5.23;100.00;103225.69;5034630;28;20386;-61
2023/02/11 00:15:31;;;;;;;16.75;8.82;;;;;;;5.21;100.00;103229.22;5035161;28;20136;-61
2023/02/11 00:17:59;;;;;;;17.85;8.95;;;;;;;5.24;100.00;103224.81;5034970;28;20049;-61
2023/02/11 00:20:27;;;;;;;17.67;8.68;;;;;;;5.25;100.00;103218.75;5035038;28;20389;-61
2023/02/11 00:22:55;;;;;;;19.45;8.57;;;;;;;5.20;100.00;103220.50;5034843;28;20034;-61
2023/02/11 00:25:23;;;;;;;18.67;8.93;;;;;;;5.21;100.00;103221.38;5034871;28;20082;-61
2023/02/11 00:27:53;;;;;;;18.42;7.90;;;;;;;5.27;100.00;103212.66;5034724;28;20041;-61
2023/02/11 00:30:21;;;;;;;17.52;7.72;;;;;;;5.30;100.00;103210.03;5050109;28;20045;-62
2023/02/11 00:32:52;;;;;;;19.20;8.10;;;;;;;5.29;100.00;103213.50;5032630;28;20095;-62
2023/02/11 00:35:20;;;;;;;18.08;7.97;;;;;;;5.30;100.00;103223.06;5030933;28;20041;-61
2023/02/11 00:37:48;;;;;;;25.40;8.50;;;;;;;5.31;100.00;103222.22;5030668;28;20061;-62
2023/02/11 00:40:16;;;;;;;16.60;8.52;;;;;;;5.30;100.00;103221.31;5013209;28;20049;-61
2023/02/11 00:42:44;;;;;;;19.67;7.95;;;;;;;5.31;100.00;103228.28;5035430;28;20045;-61
2023/02/11 00:45:13;;;;;;;19.55;8.82;;;;;;;5.29;100.00;103235.25;5034689;28;20107;-61
2023/02/11 00:47:42;;;;;;;18.42;8.18;;;;;;;5.28;100.00;103243.09;5034547;28;20041;-62
2023/02/11 00:50:10;;;;;;;18.58;8.05;;;;;;;5.29;100.00;103243.09;5030937;28;20048;-61
2023/02/11 00:52:38;;;;;;;19.35;8.25;;;;;;;5.29;100.00;103239.59;5030355;28;20041;-62
2023/02/11 00:55:07;;;;;;;21.40;8.63;;;;;;;5.29;100.00;103231.75;5030683;28;20064;-62
2023/02/11 00:57:36;;;;;;;18.25;7.13;;;;;;;5.31;100.00;103227.41;5029404;28;20049;-62
2023/02/11 01:00:05;;;;;;;17.13;8.18;;;;;;;5.28;100.00;103227.44;5030844;28;20057;-62
2023/02/11 01:02:35;;;;;;;19.42;8.55;;;;;;;5.27;100.00;103229.16;5029678;28;20049;-62
2023/02/11 01:05:03;;;;;;;19.70;7.88;;;;;;;5.29;100.00;103229.16;5030563;28;20056;-61
2023/02/11 01:07:31;;;;;;;19.33;7.95;;;;;;;5.31;100.00;103230.03;5029177;28;20116;-62
2023/02/11 01:10:01;;;;;;;20.73;7.75;;;;;;;5.25;100.00;103216.13;5031661;28;20037;-52
2023/02/11 01:12:29;;;;;;;24.50;7.70;;;;;;;5.22;100.00;103210.94;5033860;28;20048;-53
2023/02/11 01:14:57;;;;;;;21.27;7.78;;;;;;;5.21;100.00;103206.59;5033912;28;20508;-62
2023/02/11 01:17:26;;;;;;;17.88;7.32;;;;;;;5.20;100.00;103204.84;5033533;28;20052;-52
2023/02/11 01:19:55;;;;;;;17.13;7.15;;;;;;;5.23;100.00;103202.22;5032730;28;20125;-54
2023/02/11 01:22:23;;;;;;;15.73;7.25;;;;;;;5.23;100.00;103190.91;5030149;28;20380;-53
2023/02/11 01:24:51;;;;;;;18.10;7.18;;;;;;;5.21;100.00;103192.69;5030842;28;20041;-50
2023/02/11 01:27:19;;;;;;;19.90;7.68;;;;;;;5.21;100.00;103188.31;5033319;28;20053;-52
2023/02/11 01:29:47;;;;;;;18.45;7.25;;;;;;;5.19;100.00;103181.38;5033524;28;20488;-52
2023/02/11 01:32:16;;;;;;;16.40;7.30;;;;;;;5.22;100.00;103181.34;5033479;28;20069;-51
2023/02/11 01:34:44;;;;;;;28.27;7.60;;;;;;;5.20;100.00;103178.75;5033509;28;20501;-52
2023/02/11 01:37:13;;;;;;;18.65;7.10;;;;;;;5.15;100.00;103177.91;5033583;28;20044;-52
2023/02/11 01:39:41;;;;;;;18.05;7.40;;;;;;;5.12;100.00;103190.13;5033596;28;20132;-51
2023/02/11 01:42:15;;;;;;;22.52;7.53;;;;;;;5.12;100.00;103198.78;5032920;28;20079;-52
2023/02/11 01:44:43;;;;;;;19.55;7.20;;;;;;;5.14;100.00;103190.97;5033356;28;20053;-52
2023/02/11 01:47:12;;;;;;;18.70;7.10;;;;;;;5.16;100.00;103191.84;5031950;28;20054;-51
2023/02/11 01:49:44;;;;;;;18.00;7.03;;;;;;;5.17;100.00;103211.84;5029198;28;20041;-50
2023/02/11 01:52:18;;;;;;;18.38;7.18;;;;;;;5.16;100.00;103210.09;5031693;28;20068;-52
2023/02/11 01:57:39;;;;;;;18.27;6.75;;;;;;;5.11;100.00;103215.31;5032245;28;20406;-49
2023/02/11 02:00:12;;;;;;;17.70;6.93;;;;;;;5.14;100.00;103211.81;5028636;28;20049;-51
2023/02/11 02:02:48;;;;;;;20.63;7.18;;;;;;;5.14;100.00;103204.88;5028993;28;20489;-52
2023/02/11 02:05:24;;;;;;;15.63;7.05;;;;;;;5.09;100.00;103206.66;5029220;28;20045;-50
2023/02/11 02:08:00;;;;;;;20.88;6.97;;;;;;;5.11;100.00;103207.50;5031964;28;20045;-50
2023/02/11 02:10:29;;;;;;;18.40;7.35;;;;;;;5.08;100.00;103212.72;5028251;28;20951;-50
2023/02/11 02:12:57;;;;;;;18.88;7.03;;;;;;;5.08;100.00;103204.91;5028718;28;20120;-50
2023/02/11 02:15:29;;;;;;;22.77;6.97;;;;;;;5.10;100.00;103191.84;5028911;28;20108;-50
2023/02/11 02:18:20;;;;;;;13.57;6.32;;;;;;;5.08;100.00;103197.06;5028708;28;20046;-49
2023/02/11 02:21:40;;;;;;;17.83;7.07;;;;;;;5.06;100.00;103180.59;5028577;28;20538;-49
2023/02/11 02:24:50;;;;;;;21.05;7.72;;;;;;;5.09;100.00;103183.16;5028607;28;20400;-51
2023/02/11 02:27:36;;;;;;;16.45;6.90;;;;;;;5.06;100.00;103191.03;5027409;28;20460;-50
2023/02/11 02:30:35;;;;;;;21.60;6.82;;;;;;;5.12;100.00;103185.75;5029524;28;20111;-50
2023/02/11 02:33:15;;;;;;;14.02;6.88;;;;;;;5.09;100.00;103180.56;5024820;28;20080;-49
2023/02/11 02:36:00;;;;;;;20.55;7.28;;;;;;;5.10;100.00;103182.31;5032481;28;20045;-49
2023/02/11 02:38:34;;;;;;;16.50;6.45;;;;;;;5.06;100.00;103168.41;5029121;28;20971;-52
2023/02/11 02:41:06;;;;;;;18.33;6.65;;;;;;;5.09;100.00;103175.34;5028060;28;20056;-51
2023/02/11 02:43:37;;;;;;;21.98;7.70;;;;;;;5.09;100.00;103177.94;5042331;28;20053;-53
2023/02/11 02:46:15;;;;;;;23.15;7.47;;;;;;;5.06;100.00;103171.00;5051714;28;20053;-51
2023/02/11 02:48:45;;;;;;;23.50;6.72;;;;;;;5.07;100.00;103164.03;5051900;28;20175;-52
2023/02/11 02:51:37;;;;;;;19.77;7.38;;;;;;;5.11;100.00;103157.94;5034340;28;20403;-52
2023/02/11 02:54:27;;;;;;;19.08;7.30;;;;;;;5.11;100.00;103157.06;5051878;28;20500;-50
2023/02/11 02:57:04;;;;;;;18.38;7.47;;;;;;;5.08;100.00;103157.94;5051601;28;20073;-49
2023/02/11 02:59:43;;;;;;;18.67;6.80;;;;;;;5.06;100.00;103159.72;5051994;28;20484;-50
2023/02/11 03:02:18;;;;;;;19.75;6.57;;;;;;;5.15;100.00;103164.00;5050703;28;20045;-52
2023/02/11 03:04:52;;;;;;;14.55;6.80;;;;;;;5.12;100.00;103156.22;5046975;28;20049;-50
2023/02/11 03:07:28;;;;;;;18.23;6.93;;;;;;;5.06;100.00;103164.94;5050828;28;20045;-50
2023/02/11 03:10:03;;;;;;;21.95;7.70;;;;;;;5.11;100.00;103160.53;5052103;28;20071;-50
2023/02/11 03:12:33;;;;;;;21.88;7.70;;;;;;;5.05;100.00;103164.03;5062526;28;20041;-49
2023/02/11 03:15:04;;;;;;;16.95;7.05;;;;;;;5.05;100.00;103160.59;5080854;28;20437;-52
2023/02/11 03:17:34;;;;;;;17.85;7.15;;;;;;;5.05;100.00;103157.97;5055400;28;20045;-51
2023/02/11 03:20:06;;;;;;;21.00;6.43;;;;;;;5.03;100.00;103155.38;5052912;28;20114;-49
2023/02/11 03:22:39;;;;;;;19.80;7.22;;;;;;;5.03;100.00;103154.50;5061325;28;20041;-49
2023/02/11 03:25:09;;;;;;;17.35;6.32;;;;;;;5.00;100.00;103154.50;5062261;28;20048;-49
2023/02/11 03:27:43;;;;;;;20.35;6.93;;;;;;;5.02;100.00;103152.78;5065915;28;20036;-50
2023/02/11 03:30:14;;;;;;;20.65;6.85;;;;;;;5.02;100.00;103158.84;5061965;28;20422;-50
2023/02/11 03:32:50;;;;;;;16.98;6.95;;;;;;;5.02;100.00;103155.38;5058473;28;20037;-53
2023/02/11 03:35:24;;;;;;;26.05;8.10;;;;;;;5.01;100.00;103151.91;5057168;28;20099;-51
2023/02/11 03:37:57;;;;;;;20.70;6.82;;;;;;;5.05;100.00;103155.38;5059642;28;20477;-51
2023/02/11 03:40:27;;;;;;;20.88;7.38;;;;;;;5.07;100.00;103153.59;5053985;28;20396;-49
2023/02/11 03:42:59;;;;;;;18.67;6.72;;;;;;;5.09;100.00;103133.59;5073621;28;20076;-49
2023/02/11 03:45:28;;;;;;;20.67;7.10;;;;;;;5.04;100.00;103130.16;5053182;28;20076;-49
2023/02/11 03:48:05;;;;;;;21.38;8.88;;;;;;;5.01;100.00;103127.56;5077348;28;20036;-50
2023/02/11 03:50:37;;;;;;;20.80;7.90;;;;;;;5.06;100.00;103131.88;5056553;28;20076;-52
2023/02/11 03:53:06;;;;;;;19.40;7.90;;;;;;;5.03;100.00;103129.28;5054652;28;20050;-48
2023/02/11 03:55:38;;;;;;;18.48;7.90;;;;;;;5.00;100.00;103133.66;5044652;28;20136;-49
2023/02/11 03:58:06;;;;;;;;;;;;;;;5.03;100.00;103134.50;5056501;28;20561;-51
2023/02/11 04:00:38;;;;;;;17.35;6.97;;;;;;;5.05;100.00;103144.94;5064244;28;20367;-53
2023/02/11 04:03:07;;;;;;;19.60;8.43;;;;;;;5.08;100.00;103158.84;5055456;28;20127;-52
2023/02/11 04:05:37;;;;;;;19.85;7.65;;;;;;;5.08;100.00;103153.63;5062656;28;20047;-53
2023/02/11 04:08:06;;;;;;;22.77;8.15;;;;;;;5.11;100.00;103157.94;5060265;28;20048;-49
2023/02/11 04:10:37;;;;;;;16.80;7.90;;;;;;;5.08;100.00;103165.78;5070539;28;20064;-54
2023/02/11 04:13:05;;;;;;;20.63;7.75;;;;;;;5.08;100.00;103164.06;5074831;28;20376;-54
2023/02/11 04:15:37;;;;;;;22.00;8.70;;;;;;;5.14;100.00;103170.09;5058702;28;20123;-53
2023/02/11 04:18:05;;;;;;;22.00;8.60;;;;;;;5.10;100.00;103166.66;5059586;28;20466;-54
2023/02/11 04:20:33;;;;;;;19.23;8.60;;;;;;;5.06;100.00;103164.94;5061153;28;20091;-53
2023/02/11 04:23:03;;;;;;;21.67;8.18;;;;;;;5.08;100.00;103176.22;5062356;28;20095;-49
2023/02/11 04:25:31;;;;;;;25.10;9.05;;;;;;;5.07;100.00;103174.47;5057722;28;20383;-50
2023/02/11 04:27:59;;;;;;;25.35;8.57;;;;;;;5.05;100.00;103169.25;5054351;28;20045;-49
2023/02/11 04:30:27;;;;;;;22.33;9.45;;;;;;;5.11;100.00;103168.34;5067490;28;20138;-49
2023/02/11 04:32:58;;;;;;;17.85;8.45;;;;;;;5.08;100.00;103166.66;5065163;28;20040;-49
2023/02/11 04:35:27;;;;;;;22.02;10.68;;;;;;;5.10;100.00;103158.81;5064964;28;20040;-50
2023/02/11 04:37:55;;;;;;;28.55;11.05;;;;;;;5.07;100.00;103158.81;5067010;28;20044;-51
2023/02/11 04:40:24;;;;;;;19.05;9.57;;;;;;;5.06;100.00;103164.94;5064332;28;20063;-49
2023/02/11 04:42:52;;;;;;;19.15;8.27;;;;;;;5.09;100.00;103167.53;5052191;28;20048;-50
2023/02/11 04:45:20;;;;;;;20.20;9.35;;;;;;;5.10;100.00;103169.25;5057625;28;20043;-52
2023/02/11 04:47:48;;;;;;;23.92;9.18;;;;;;;5.09;100.00;103164.91;5062667;28;20063;-50
2023/02/11 04:50:17;;;;;;;20.52;10.02;;;;;;;5.06;100.00;103167.53;5053193;28;20760;-51
2023/02/11 04:52:45;;;;;;;19.73;8.90;;;;;;;5.08;100.00;103166.66;5056179;28;20480;-52
2023/02/11 04:55:14;;;;;;;22.88;11.23;;;;;;;5.06;100.00;103159.72;5079524;28;20039;-52
2023/02/11 04:57:43;;;;;;;23.17;10.00;;;;;;;5.09;100.00;103170.13;5089954;28;20044;-49
2023/02/11 05:00:15;;;;;;;19.63;8.68;;;;;;;5.07;100.00;103164.91;5074596;28;20044;-52
2023/02/11 05:02:43;;;;;;;23.80;10.35;;;;;;;5.06;100.00;103163.19;5069991;28;20036;-49
2023/02/11 05:05:11;;;;;;;22.77;10.07;;;;;;;5.10;100.00;103169.25;5073846;28;20041;-48
2023/02/11 05:07:39;;;;;;;19.35;9.30;;;;;;;5.08;100.00;103155.34;5073978;28;20437;-49
2023/02/11 05:10:08;;;;;;;27.88;10.90;;;;;;;5.05;100.00;103144.94;5073780;28;20056;-49
2023/02/11 05:12:36;;;;;;;20.95;9.95;;;;;;;5.07;100.00;103159.72;5055811;28;20083;-48
2023/02/11 05:15:06;;;;;;;29.92;10.43;;;;;;;5.09;100.00;103154.47;5073871;28;20506;-49
2023/02/11 05:17:34;;;;;;;21.05;10.32;;;;;;;5.10;100.00;103164.03;5073663;28;20048;-49
2023/02/11 05:20:02;;;;;;;23.58;9.73;;;;;;;5.07;100.00;103169.25;5073703;28;20124;-49
2023/02/11 05:22:30;;;;;;;26.90;10.80;;;;;;;5.10;100.00;103160.53;5073594;28;20102;-50
2023/02/11 05:24:58;;;;;;;24.83;11.02;;;;;;;5.11;100.00;103168.34;5073414;28;20440;-51
2023/02/11 05:27:27;;;;;;;22.73;10.18;;;;;;;5.12;100.00;103166.63;5073110;28;20450;-54
2023/02/11 05:29:55;;;;;;;22.58;10.57;;;;;;;5.10;100.00;103166.66;5072740;28;20533;-51
2023/02/11 05:32:24;;;;;;;21.58;9.85;;;;;;;5.10;100.00;103165.75;5073268;28;20040;-53
2023/02/11 05:34:52;;;;;;;26.58;11.15;;;;;;;5.12;100.00;103169.25;5057484;28;20132;-52
2023/02/11 05:37:20;;;;;;;26.75;11.85;;;;;;;5.08;100.00;103171.00;5052497;28;20095;-52
2023/02/11 05:39:48;;;;;;;26.70;10.88;;;;;;;5.11;100.00;103173.56;5064429;28;20102;-49
2023/02/11 05:42:17;;;;;;;22.30;11.70;;;;;;;5.12;100.00;103172.72;5062512;28;20047;-52
2023/02/11 05:44:48;;;;;;;24.30;11.57;;;;;;;5.11;100.00;103175.34;5064994;28;20048;-53
2023/02/11 05:47:17;;;;;;;26.40;10.85;;;;;;;5.18;100.00;103177.03;5039315;28;20139;-53
2023/02/11 05:49:47;;;;;;;29.27;10.88;;;;;;;5.15;100.00;103177.91;5054977;28;20045;-49
2023/02/11 05:52:15;;;;;;;25.17;11.63;;;;;;;5.14;100.00;103175.31;5053596;28;20051;-49
2023/02/11 05:54:43;;;;;;;24.45;12.27;;;;;;;5.12;100.00;103174.47;5073358;28;20036;-51
2023/02/11 05:57:11;;;;;;;26.25;12.15;;;;;;;5.13;100.00;103171.00;5093194;28;20445;-49
2023/02/11 05:59:39;;;;;;;27.40;12.43;;;;;;;5.08;100.00;103174.50;5080248;28;20053;-49
2023/02/11 06:02:08;;;;;;;29.48;12.70;;;;;;;5.12;100.00;103171.84;5070983;28;20450;-52
2023/02/11 06:04:37;;;;;;;29.35;12.80;;;;;;;5.13;100.00;103179.66;5068813;28;20131;-50
2023/02/11 06:07:06;;;;;;;29.73;12.45;;;;;;;5.10;100.00;103179.69;5054304;28;20628;-50
2023/02/11 06:09:34;;;;;;;24.25;12.48;;;;;;;5.13;100.00;103177.06;5068679;28;20121;-50
2023/02/11 06:12:03;;;;;;;29.38;13.25;;;;;;;5.14;100.00;103178.81;5084043;28;20206;-50
2023/02/11 06:14:33;;;;;;;33.03;13.90;;;;;;;5.14;100.00;103175.31;5092861;28;20048;-52
2023/02/11 06:17:01;;;;;;;27.92;13.18;;;;;;;5.14;100.00;103176.19;5092763;28;20057;-49
2023/02/11 06:19:29;;;;;;;29.08;14.07;;;;;;;5.14;100.00;103173.59;5092724;28;20036;-49
2023/02/11 06:21:58;;;;;;;32.40;14.30;;;;;;;5.14;100.00;103170.09;5092268;28;20075;-53
2023/02/11 06:24:30;;;;;;;27.88;14.20;;;;;;;5.14;100.00;103157.94;5088241;28;20097;-50
2023/02/11 06:27:18;;;;;;;28.50;13.82;;;;;;;5.14;100.00;103170.09;5057233;28;20051;-50
2023/02/11 06:29:46;;;;;;;28.27;14.52;;;;;;;5.14;100.00;103164.88;5062335;28;20123;-50
2023/02/11 06:32:14;;;;;;;29.48;14.10;;;;;;;5.13;100.00;103171.84;5049776;28;20081;-49
2023/02/11 06:35:02;;;;;;;34.83;14.93;;;;;;;5.18;100.00;103174.41;5061489;28;20037;-49
2023/02/11 06:37:30;;;;;;;27.58;15.50;;;;;;;5.15;100.00;103170.06;5037657;28;20079;-49
2023/02/11 06:40:00;;;;;;;28.08;14.48;;;;;;;5.14;100.00;103177.91;5055295;28;20045;-49
2023/02/11 06:42:28;;;;;;;32.28;15.55;;;;;;;5.11;100.00;103173.56;5064026;28;20427;-49
2023/02/11 06:44:56;;;;;;;32.40;15.02;;;;;;;5.16;100.00;103181.41;5053106;28;20401;-51
2023/02/11 06:47:25;;;;;;;35.38;16.73;;;;;;;5.16;100.00;103182.25;5063661;28;20488;-52
2023/02/11 06:49:53;;;;;;;34.88;16.85;;;;;;;5.17;100.00;103178.78;5057488;28;20438;-53
2023/02/11 06:52:21;;;;;;;40.17;17.70;;;;;;;5.17;100.00;103172.72;5056994;28;20508;-52
2023/02/11 06:54:49;;;;;;;35.63;15.85;;;;;;;5.19;100.00;103178.75;5070676;28;20036;-52
2023/02/11 06:57:18;;;;;;;34.17;17.88;;;;;;;5.21;100.00;103180.50;5092307;28;20101;-53
2023/02/11 06:59:47;;;;;;;33.50;16.70;;;;;;;5.19;100.00;103182.22;5071260;28;20511;-54
2023/02/11 07:02:15;;;;;;;38.63;15.93;;;;;;;5.19;100.00;103187.44;5055274;28;20103;-54
2023/02/11 07:04:49;;;;;;;35.45;16.55;;;;;;;5.17;100.00;103184.00;5066121;28;20577;-50
2023/02/11 07:07:17;;;;;;;33.33;16.95;;;;;;;5.16;100.00;103177.03;5067387;28;20095;-53
2023/02/11 07:09:45;;;;;;;34.08;16.48;;;;;;;5.15;100.00;103180.50;5054341;28;20037;-54
2023/02/11 07:12:13;;;;;;;38.67;17.95;;;;;;;5.14;100.00;103184.03;5059391;28;20045;-52
2023/02/11 07:14:43;;;;;;;44.08;17.67;;;;;;;5.13;100.00;103184.88;5066831;28;20074;-51
2023/02/11 07:17:11;;;;;;;37.60;18.08;;;;;;;5.15;100.00;103190.09;5057792;28;20392;-54
2023/02/11 07:19:39;;;;;;;37.03;18.38;;;;;;;5.13;100.00;103191.84;5048644;28;20044;-52
2023/02/11 07:22:07;;;;;;;39.10;18.23;;;;;;;5.19;100.00;103187.44;5058873;28;20063;-50
2023/02/11 07:24:35;;;;;;;40.47;19.25;;;;;;;5.16;100.00;103197.91;5059423;28;20070;-51
2023/02/11 07:27:03;;;;;;;42.47;19.60;;;;;;;5.18;100.00;103203.13;5040906;28;20047;-52
2023/02/11 07:29:32;;;;;;;35.83;17.67;;;;;;;5.19;100.00;103205.72;5061649;28;20043;-52
2023/02/11 07:32:01;;;;;;;37.33;18.65;;;;;;;5.21;100.00;103206.59;5060496;28;20538;-49
2023/02/11 07:34:29;;;;;;;40.55;18.67;;;;;;;5.21;100.00;103201.38;5063486;28;20040;-51
2023/02/11 07:36:57;;;;;;;38.85;17.83;;;;;;;5.22;100.00;103204.84;5069609;28;20519;-50
2023/02/11 07:39:29;;;;;;;47.83;19.70;;;;;;;5.21;100.00;103209.19;5091450;28;20060;-48
2023/02/11 07:41:57;;;;;;;42.47;20.08;;;;;;;5.18;100.00;103209.22;5076592;28;20050;-48
2023/02/11 07:44:25;;;;;;;47.05;21.75;;;;;;;5.25;100.00;103220.50;5075541;28;20706;-50
2023/02/11 07:46:53;;;;;;;42.70;22.08;;;;;;;5.23;100.00;103211.78;5075327;28;20048;-49
2023/02/11 07:49:23;;;;;;;44.15;22.40;;;;;;;5.23;100.00;103202.22;5075579;28;20522;-49
2023/02/11 07:51:51;;;;;;;39.55;21.35;;;;;;;5.32;100.00;103206.53;5069138;28;20036;-49
2023/02/11 07:54:19;;;;;;;47.90;21.25;;;;;;;5.29;100.00;103195.22;5067270;28;20147;-50
2023/02/11 07:56:47;;;;;;;42.88;21.33;;;;;;;5.31;100.00;103203.94;5092554;28;20491;-49
2023/02/11 07:59:15;;;;;;;44.47;20.35;;;;;;;5.39;100.00;103208.22;5077500;28;20116;-49
2023/02/11 08:01:44;;;;;;;48.58;22.08;;;;;;;5.40;100.00;103216.94;5074910;28;20135;-52
2023/02/11 08:04:12;;;;;;;45.00;22.95;;;;;;;5.39;100.00;103215.19;5071280;28;20072;-51
2023/02/11 08:06:43;;;;;;;46.33;22.38;;;;;;;5.38;100.00;103213.47;5059159;28;20048;-53
2023/02/11 08:09:15;;;;;;;44.05;22.80;;;;;;;5.42;100.00;103212.56;5060517;28;20565;-52
2023/02/11 08:11:44;;;;;;;46.87;21.73;;;;;;;5.40;100.00;103209.97;5054969;28;20057;-51
2023/02/11 08:14:15;;;;;;;48.92;22.15;;;;;;;5.42;100.00;103209.94;5059586;28;21112;-51
2023/02/11 08:16:43;;;;;;;46.25;21.73;;;;;;;5.42;100.00;103209.94;5065607;28;20041;-53
2023/02/11 08:19:14;;;;;;;43.83;21.73;;;;;;;5.46;100.00;103203.84;5066361;28;20075;-51
2023/02/11 08:21:58;;;;;;;49.92;24.33;;;;;;;5.46;100.00;103211.66;5069470;28;20044;-61
2023/02/11 08:24:31;;;;;;;49.95;24.25;;;;;;;5.48;100.00;103201.22;5068075;28;20033;-62
2023/02/11 08:26:59;;;;;;;47.53;22.13;;;;;;;5.49;100.00;103206.41;5059219;28;20550;-62
2023/02/11 08:29:27;;;;;;;47.88;22.67;;;;;;;5.51;100.00;103204.69;5059673;28;20044;-62
2023/02/11 08:31:55;;;;;;;51.83;24.05;;;;;;;5.52;100.00;103205.53;5060844;28;20048;-62
2023/02/11 08:34:23;;;;;;;45.50;23.38;;;;;;;5.58;100.00;103208.97;5065077;28;20136;-62
2023/02/11 08:36:52;;;;;;;43.63;21.50;;;;;;;5.59;100.00;103215.94;5056879;28;20045;-62
2023/02/11 08:39:23;;;;;;;53.67;23.50;;;;;;;5.62;100.00;103212.44;5058856;28;20059;-63
2023/02/11 08:41:55;;;;;;;44.95;22.55;;;;;;;5.69;100.00;103218.50;5057408;28;20106;-62
2023/02/11 08:44:24;;;;;;;54.10;24.73;;;;;;;5.67;100.00;103217.63;5051488;28;20579;-62
2023/02/11 08:46:52;;;;;;;50.83;23.67;;;;;;;5.69;100.00;103218.50;5053198;28;20087;-62
2023/02/11 08:49:23;;;;;;;44.97;24.48;;;;;;;5.71;100.00;103228.06;5053701;28;20077;-62
2023/02/11 08:51:55;;;;;;;50.80;22.83;;;;;;;5.73;100.00;103225.44;5053655;28;20059;-62
2023/02/11 08:54:23;;;;;;;44.08;23.17;;;;;;;5.76;100.00;103236.72;5054625;28;20522;-62
2023/02/11 08:56:51;;;;;;;50.15;22.55;;;;;;;5.80;100.00;103240.19;5051236;28;20036;-62
2023/02/11 08:59:19;;;;;;;49.55;24.20;;;;;;;5.81;100.00;103233.19;5050480;28;20131;-63
2023/02/11 09:01:48;;;;;;;46.22;23.73;;;;;;;5.82;100.00;103242.78;5051052;28;20037;-63
2023/02/11 09:04:16;;;;;;;48.03;23.27;;;;;;;5.91;100.00;103246.19;5051392;28;20043;-63
2023/02/11 09:06:45;;;;;;;48.80;24.38;;;;;;;5.95;100.00;103248.78;5046869;28;20033;-63
2023/02/11 09:09:16;;;;;;;49.00;25.13;;;;;;;5.94;100.00;103253.13;5048428;28;20047;-63
2023/02/11 09:11:45;;;;;;;47.17;24.38;;;;;;;5.95;100.00;103240.97;5050908;28;20049;-63
2023/02/11 09:14:19;;;;;;;53.47;24.07;;;;;;;5.99;100.00;103247.94;5051712;28;20387;-63
2023/02/11 09:16:47;;;;;;;48.47;24.52;;;;;;;6.00;100.00;103240.06;5051797;28;20773;-63
2023/02/11 09:19:16;;;;;;;46.67;24.27;;;;;;;6.04;100.00;103247.00;5047944;28;20048;-63
2023/02/11 09:21:44;;;;;;;51.00;25.35;;;;;;;6.06;100.00;103257.44;5053779;28;20049;-63
2023/02/11 09:24:13;;;;;;;52.80;25.80;;;;;;;6.11;100.00;103258.28;5053487;28;20071;-63
2023/02/11 09:26:43;;;;;;;58.72;27.33;;;;;;;6.11;100.00;103262.63;5046919;28;20075;-63
2023/02/11 09:29:11;;;;;;;51.38;25.60;;;;;;;6.25;100.00;103271.22;5037925;28;20042;-63
2023/02/11 09:31:39;;;;;;;46.92;25.30;;;;;;;6.24;100.00;103275.59;5039066;28;20052;-63
2023/02/11 09:34:08;;;;;;;49.97;26.25;;;;;;;6.23;100.00;103279.09;5049548;28;20045;-63
2023/02/11 09:36:38;;;;;;;56.10;25.88;;;;;;;6.28;100.00;103275.56;5035696;28;20045;-63
2023/02/11 09:39:09;;;;;;;47.28;24.10;;;;;;;6.32;100.00;103272.91;5046291;28;20095;-63
2023/02/11 09:42:04;;;;;;;49.38;27.85;;;;;;;6.38;100.00;103274.59;5036859;28;20052;-63
2023/02/11 09:44:34;;;;;;;50.20;25.88;;;;;;;6.40;100.00;103270.22;5046330;28;20057;-63
2023/02/11 09:47:04;;;;;;;46.22;25.35;;;;;;;6.40;100.00;103267.63;5035283;28;20464;-63
2023/02/11 09:49:39;;;;;;;49.58;24.95;;;;;;;6.48;100.00;103273.66;5034653;28;20036;-63
2023/02/11 09:52:25;;;;;;;51.55;27.13;;;;;;;6.52;100.00;103274.50;5050521;28;20036;-63
2023/02/11 09:54:56;;;;;;;51.30;25.63;;;;;;;6.55;100.00;103283.16;5032385;28;20096;-63
2023/02/11 09:57:31;;;;;;;54.25;26.48;;;;;;;6.60;100.00;103294.44;5028052;28;20068;-63
2023/02/11 10:00:01;;;;;;;48.22;26.90;;;;;;;6.62;100.00;103296.19;5047322;28;21891;-63
2023/02/11 10:02:38;;;;;;;48.70;25.73;;;;;;;6.62;100.00;103293.56;5048716;28;20534;-63
2023/02/11 10:05:27;;;;;;;50.97;26.38;;;;;;;6.62;100.00;103304.88;5045670;28;20060;-63
2023/02/11 10:08:02;;;;;;;52.88;26.60;;;;;;;6.69;100.00;103308.31;5049255;28;20045;-63
2023/02/11 10:10:43;;;;;;;45.58;25.13;;;;;;;6.72;100.00;103306.53;5049997;28;20447;-63
2023/02/11 10:13:32;;;;;;;46.47;26.02;;;;;;;6.76;100.00;103310.88;5047355;28;20052;-63
2023/02/11 10:16:09;;;;;;;52.63;26.15;;;;;;;6.79;100.00;103317.81;5049480;28;20506;-63
2023/02/11 10:18:53;;;;;;;52.65;25.73;;;;;;;6.88;100.00;103316.84;5043735;28;20049;-63
2023/02/11 10:21:32;;;;;;;47.53;25.55;;;;;;;6.90;100.00;103321.19;5051720;28;20049;-63
2023/02/11 10:24:04;;;;;;;48.30;25.42;;;;;;;6.95;100.00;103326.34;5015654;28;20041;-63
2023/02/11 10:26:36;;;;;;;47.40;25.23;;;;;;;6.96;100.00;103328.09;5040720;28;20033;-63
2023/02/11 10:29:31;;;;;;;43.20;23.90;;;;;;;6.99;100.00;103335.06;5047954;28;20067;-63
2023/02/11 10:32:01;;;;;;;50.75;24.83;;;;;;;7.04;100.00;103336.72;5049098;28;20059;-63
2023/02/11 10:34:29;;;;;;;45.50;25.63;;;;;;;7.12;100.00;103336.66;5044758;28;20119;-63
2023/02/11 10:36:59;;;;;;;45.90;25.55;;;;;;;7.11;100.00;103340.16;5046202;28;20040;-63
2023/02/11 10:39:28;;;;;;;46.63;25.38;;;;;;;7.14;100.00;103342.72;5044172;28;20076;-63
2023/02/11 10:42:00;;;;;;;44.50;24.73;;;;;;;7.22;100.00;103343.50;5049856;28;20068;-63
2023/02/11 10:44:32;;;;;;;43.78;24.85;;;;;;;7.23;100.00;103341.78;5051314;28;20056;-63
2023/02/11 10:47:04;;;;;;;46.22;25.58;;;;;;;7.25;100.00;103340.88;5060778;28;20041;-63
2023/02/11 10:49:38;;;;;;;40.45;25.20;;;;;;;7.34;100.00;103350.38;5060327;28;20116;-63
2023/02/11 10:52:19;;;;;;;45.80;24.85;;;;;;;7.40;100.00;103349.44;5055289;28;20048;-63
2023/02/11 10:54:59;;;;;;;46.00;24.70;;;;;;;7.44;100.00;103356.34;5071553;28;20406;-63
2023/02/11 10:57:32;;;;;;;47.35;25.13;;;;;;;7.49;100.00;103356.31;5088149;28;20469;-63
2023/02/11 11:00:08;;;;;;;44.08;23.30;;;;;;;7.57;100.00;103354.47;5072196;28;20059;-63
2023/02/11 11:02:42;;;;;;;37.47;23.30;;;;;;;7.57;100.00;103357.94;5072291;28;20707;-63
2023/02/11 11:05:17;;;;;;;41.50;24.13;;;;;;;7.57;100.00;103359.72;5071801;28;20151;-63
2023/02/11 11:07:53;;;;;;;40.95;23.80;;;;;;;7.66;100.00;103363.97;5065059;28;20041;-63
2023/02/11 11:10:31;;;;;;;39.33;25.05;;;;;;;7.70;100.00;103363.91;5077924;28;20110;-63
2023/02/11 11:12:59;;;;;;;39.03;23.45;;;;;;;7.79;100.00;103369.00;5089403;28;20051;-63
2023/02/11 11:15:31;;;;;;;38.15;22.80;;;;;;;7.81;100.00;103371.59;5070394;28;20390;-63
2023/02/11 11:18:13;;;;;;;41.20;24.27;;;;;;;7.93;100.00;103360.09;5067682;28;20040;-63
2023/02/11 11:20:58;;;;;;;35.58;22.90;;;;;;;7.94;100.00;103367.94;5068053;28;20722;-63
2023/02/11 11:23:28;;;;;;;38.63;23.45;;;;;;;8.02;100.00;103361.75;5068286;28;20040;-63
2023/02/11 11:26:04;;;;;;;38.42;23.45;;;;;;;8.08;100.00;103362.50;5070105;28;20048;-63
2023/02/11 11:28:39;;;;;;;43.03;23.65;;;;;;;8.13;100.00;103357.22;5071192;28;20527;-63
2023/02/11 11:31:17;;;;;;;39.05;22.63;;;;;;;8.16;100.00;103356.31;5054826;28;20051;-63
2023/02/11 11:33:47;;;;;;;35.22;21.77;;;;;;;8.17;100.00;103353.66;5054470;28;20040;-63